createdAt,value
2018-11-04T00:00:47.820Z,59.65
2018-11-04T00:03:18.145Z,56.83
2018-11-04T00:05:48.193Z,58.27
2018-11-04T00:08:18.457Z,52.93
2018-11-04T00:10:48.913Z,60.83
2018-11-04T00:13:19.591Z,61.47
2018-11-04T00:15:50.249Z,61.37
2018-11-04T00:18:20.649Z,62.10
2018-11-04T00:20:51.052Z,61.57
2018-11-04T00:23:22.123Z,58.67
2018-11-04T00:25:52.514Z,58.07
2018-11-04T00:28:22.988Z,59.07
2018-11-04T00:30:53.374Z,60.03
2018-11-04T00:33:23.907Z,64.03
2018-11-04T00:35:54.150Z,64.43
2018-11-04T00:38:24.547Z,61.07
2018-11-04T00:40:55.029Z,68.37
2018-11-04T00:43:25.349Z,66.83
2018-11-04T00:45:56.113Z,68.35
2018-11-04T00:48:26.715Z,72.50
2018-11-04T00:50:57.121Z,72.80
2018-11-04T00:53:27.373Z,65.70
2018-11-04T00:55:57.550Z,63.10
2018-11-04T00:58:28.161Z,63.40
2018-11-04T01:00:58.426Z,71.40
2018-11-04T01:03:28.280Z,76.40
2018-11-04T01:05:58.682Z,64.97
2018-11-04T01:08:29.179Z,67.17
2018-11-04T01:10:59.846Z,67.27
2018-11-04T01:13:30.635Z,67.03
2018-11-04T01:16:00.675Z,71.17
2018-11-04T01:18:31.475Z,66.40
2018-11-04T01:21:03.362Z,65.00
2018-11-04T01:23:33.828Z,68.35
2018-11-04T01:26:06.258Z,71.63
2018-11-04T01:28:36.421Z,68.57
2018-11-04T01:31:06.437Z,62.13
2018-11-04T01:33:36.526Z,62.07
2018-11-04T01:36:06.840Z,63.30
2018-11-04T01:38:36.883Z,66.17
2018-11-04T01:41:07.349Z,63.10
2018-11-04T01:43:37.588Z,65.32
2018-11-04T01:46:07.870Z,60.63
2018-11-04T01:48:37.997Z,63.90
2018-11-04T01:51:08.055Z,62.07
2018-11-04T01:53:37.990Z,64.37
2018-11-04T01:56:08.511Z,57.93
2018-11-04T01:58:38.839Z,65.27
2018-11-04T02:01:08.987Z,57.80
2018-11-04T02:03:39.141Z,58.13
2018-11-04T02:06:09.108Z,62.00
2018-11-04T02:08:39.021Z,53.97
2018-11-04T02:11:08.881Z,55.90
2018-11-04T02:13:38.601Z,59.00
2018-11-04T02:16:08.792Z,60.00
2018-11-04T02:18:38.667Z,60.70
2018-11-04T02:21:09.150Z,56.97
2018-11-04T02:23:39.149Z,67.77
2018-11-04T02:26:09.397Z,68.93
2018-11-04T02:28:39.924Z,68.90
2018-11-04T02:31:10.087Z,66.30
2018-11-04T02:33:39.930Z,59.00
2018-11-04T02:36:10.087Z,67.83
2018-11-04T02:38:41.018Z,64.43
2018-11-04T02:41:11.115Z,66.67
2018-11-04T02:43:41.107Z,65.77
2018-11-04T02:46:11.311Z,71.00
2018-11-04T02:48:41.409Z,66.13
2018-11-04T02:51:11.636Z,67.70
2018-11-04T02:53:41.831Z,73.77
2018-11-04T02:56:11.891Z,69.60
2018-11-04T02:58:42.179Z,63.47
2018-11-04T03:01:12.317Z,67.60
2018-11-04T03:03:43.473Z,66.17
2018-11-04T03:06:13.512Z,67.13
2018-11-04T03:08:43.619Z,68.37
2018-11-04T03:11:13.771Z,76.97
2018-11-04T03:13:43.862Z,67.43
2018-11-04T03:16:14.021Z,64.83
2018-11-04T03:18:44.034Z,72.03
2018-11-04T03:21:14.568Z,67.03
2018-11-04T03:23:44.993Z,63.87
2018-11-04T03:26:15.457Z,65.10
2018-11-04T03:28:45.702Z,73.27
2018-11-04T03:31:16.035Z,72.85
2018-11-04T03:33:46.074Z,65.20
2018-11-04T03:36:16.074Z,66.53
2018-11-04T03:38:46.300Z,62.97
2018-11-04T03:41:16.406Z,68.60
2018-11-04T03:43:47.086Z,60.78
2018-11-04T03:46:16.959Z,64.73
2018-11-04T03:48:47.112Z,59.93
2018-11-04T03:51:17.181Z,66.13
2018-11-04T03:53:47.552Z,63.57
2018-11-04T03:56:18.353Z,59.67
2018-11-04T03:58:48.891Z,57.50
2018-11-04T04:01:19.318Z,63.07
2018-11-04T04:03:49.550Z,61.05
2018-11-04T04:06:20.357Z,61.00
2018-11-04T04:08:51.027Z,56.92
2018-11-04T04:11:21.138Z,52.80
2018-11-04T04:13:51.271Z,58.43
2018-11-04T04:16:21.291Z,52.00
2018-11-04T04:18:51.814Z,51.57
2018-11-04T04:21:22.673Z,48.30
2018-11-04T04:23:53.237Z,50.63
2018-11-04T04:26:24.269Z,56.80
2018-11-04T04:28:55.681Z,59.90
2018-11-04T04:31:26.251Z,51.85
2018-11-04T04:33:57.377Z,49.23
2018-11-04T04:36:27.326Z,49.70
2018-11-04T04:38:58.772Z,47.70
2018-11-04T04:41:29.366Z,49.20
2018-11-04T04:44:01.601Z,46.58
2018-11-04T04:46:31.934Z,53.47
2018-11-04T04:49:02.690Z,44.20
2018-11-04T04:51:33.330Z,40.40
2018-11-04T04:54:04.377Z,46.98
2018-11-04T04:56:35.243Z,42.53
2018-11-04T04:59:06.313Z,49.80
2018-11-04T05:01:37.384Z,46.63
2018-11-04T05:04:11.018Z,47.65
2018-11-04T05:06:40.849Z,43.03
2018-11-04T05:09:10.772Z,45.83
2018-11-04T05:11:41.759Z,42.05
2018-11-04T05:14:12.426Z,45.45
2018-11-04T05:16:43.320Z,44.27
2018-11-04T05:19:14.295Z,41.30
2018-11-04T05:21:45.225Z,43.02
2018-11-04T05:24:16.275Z,43.15
2018-11-04T05:26:47.338Z,44.40
2018-11-04T05:29:18.218Z,43.52
2018-11-04T05:31:49.431Z,42.88
2018-11-04T05:34:20.147Z,42.58
2018-11-04T05:36:51.842Z,40.52
2018-11-04T05:39:23.589Z,42.13
2018-11-04T05:41:53.738Z,40.10
2018-11-04T05:44:24.326Z,39.25
2018-11-04T05:46:55.649Z,40.88
2018-11-04T05:49:26.364Z,44.60
2018-11-04T05:51:58.444Z,43.30
2018-11-04T05:54:28.390Z,41.47
2018-11-04T05:56:59.378Z,35.90
2018-11-04T05:59:30.151Z,34.55
2018-11-04T06:02:01.823Z,42.90
2018-11-04T06:04:32.653Z,39.10
2018-11-04T06:07:03.725Z,46.75
2018-11-04T06:09:34.452Z,44.00
2018-11-04T06:12:05.689Z,42.55
2018-11-04T06:14:35.704Z,37.43
2018-11-04T06:17:06.793Z,39.13
2018-11-04T06:19:37.705Z,36.23
2018-11-04T06:22:08.592Z,43.80
2018-11-04T06:24:39.384Z,43.52
2018-11-04T06:27:10.924Z,40.95
2018-11-04T06:29:41.481Z,35.64
2018-11-04T06:32:12.668Z,36.65
2018-11-04T06:34:43.627Z,41.58
2018-11-04T06:37:14.745Z,37.98
2018-11-04T06:39:45.458Z,39.48
2018-11-04T06:42:16.482Z,35.50
2018-11-04T06:44:47.311Z,36.53
2018-11-04T06:47:18.591Z,38.10
2018-11-04T06:49:49.278Z,36.75
2018-11-04T06:52:21.387Z,38.26
2018-11-04T06:54:51.260Z,37.17
2018-11-04T06:57:22.705Z,41.58
2018-11-04T06:59:53.722Z,38.00
2018-11-04T07:02:24.849Z,42.58
2018-11-04T07:04:55.738Z,40.28
2018-11-04T07:07:26.779Z,39.05
2018-11-04T07:09:57.658Z,39.48
2018-11-04T07:12:29.074Z,36.17
2018-11-04T07:14:59.760Z,40.57
2018-11-04T07:17:30.709Z,38.80
2018-11-04T07:20:01.845Z,39.85
2018-11-04T07:22:32.874Z,35.55
2018-11-04T07:25:03.710Z,35.98
2018-11-04T07:27:34.511Z,40.33
2018-11-04T07:30:06.129Z,34.78
2018-11-04T07:32:36.446Z,37.40
2018-11-04T07:35:09.921Z,41.72
2018-11-04T07:37:40.946Z,39.90
2018-11-04T07:40:11.534Z,41.27
2018-11-04T07:42:42.038Z,37.90
2018-11-04T07:45:11.840Z,41.37
2018-11-04T07:47:43.128Z,36.20
2018-11-04T07:50:15.469Z,40.70
2018-11-04T07:52:46.055Z,40.40
2018-11-04T07:55:15.988Z,35.13
2018-11-04T07:57:46.777Z,43.36
2018-11-04T08:00:17.887Z,43.52
2018-11-04T08:02:48.679Z,41.80
2018-11-04T08:05:19.482Z,42.08
2018-11-04T08:07:50.467Z,46.68
2018-11-04T08:10:21.116Z,38.88
2018-11-04T08:12:52.464Z,44.14
2018-11-04T08:15:23.232Z,47.27
2018-11-04T08:17:54.342Z,47.23
2018-11-04T08:20:25.345Z,45.83
2018-11-04T08:22:56.539Z,45.92
2018-11-04T08:25:27.177Z,46.92
2018-11-04T08:27:58.138Z,52.15
2018-11-04T08:30:29.536Z,59.36
2018-11-04T08:33:00.193Z,68.37
2018-11-04T08:35:31.196Z,89.77
2018-11-04T08:38:02.574Z,68.10
2018-11-04T08:40:44.262Z,61.40
2018-11-04T08:43:14.234Z,49.97
2018-11-04T08:45:44.091Z,50.23
2018-11-04T08:48:14.234Z,47.73
2018-11-04T08:50:44.071Z,41.60
2018-11-04T08:53:14.131Z,42.00
2018-11-04T08:55:44.084Z,42.43
2018-11-04T08:58:13.972Z,45.00
2018-11-04T09:00:44.003Z,44.85
2018-11-04T09:03:14.155Z,42.10
2018-11-04T09:05:44.204Z,41.27
2018-11-04T09:08:14.258Z,39.33
2018-11-04T09:10:45.074Z,37.03
2018-11-04T09:13:16.573Z,40.08
2018-11-04T09:15:47.222Z,33.15
2018-11-04T09:18:18.202Z,36.45
2018-11-04T09:20:49.090Z,35.25
2018-11-04T09:23:20.532Z,37.30
2018-11-04T09:25:51.106Z,37.78
2018-11-04T09:28:22.545Z,45.68
2018-11-04T09:30:53.206Z,40.63
2018-11-04T09:33:24.228Z,34.33
2018-11-04T09:35:55.273Z,37.70
2018-11-04T09:38:26.169Z,35.58
2018-11-04T09:40:57.040Z,48.60
2018-11-04T09:43:28.451Z,39.20
2018-11-04T09:45:59.065Z,45.65
2018-11-04T09:48:30.309Z,40.00
2018-11-04T09:51:00.970Z,45.38
2018-11-04T09:53:32.398Z,45.62
2018-11-04T09:56:02.930Z,38.73
2018-11-04T09:58:34.361Z,39.18
2018-11-04T10:01:04.896Z,48.50
2018-11-04T10:03:36.441Z,45.04
2018-11-04T10:06:06.951Z,40.90
2018-11-04T10:08:38.465Z,46.94
2018-11-04T10:11:08.997Z,37.85
2018-11-04T10:13:40.378Z,37.40
2018-11-04T10:16:11.329Z,37.75
2018-11-04T10:18:42.356Z,43.80
2018-11-04T10:21:13.324Z,40.70
2018-11-04T10:23:44.061Z,42.38
2018-11-04T10:26:15.213Z,42.50
2018-11-04T10:28:46.456Z,38.92
2018-11-04T10:31:16.257Z,36.60
2018-11-04T10:33:47.082Z,38.08
2018-11-04T10:36:18.599Z,41.46
2018-11-04T10:38:49.483Z,46.50
2018-11-04T10:41:19.989Z,48.20
2018-11-04T10:43:52.211Z,46.56
2018-11-04T10:46:21.979Z,47.05
2018-11-04T10:48:53.405Z,48.78
2018-11-04T10:51:23.946Z,48.45
2018-11-04T10:53:55.553Z,44.66
2018-11-04T10:56:26.026Z,45.92
2018-11-04T10:58:57.250Z,49.02
2018-11-04T11:01:28.011Z,49.70
2018-11-04T11:03:59.572Z,52.88
2018-11-04T11:06:29.987Z,48.75
2018-11-04T11:09:01.561Z,58.92
2018-11-04T11:11:32.025Z,56.68
2018-11-04T11:14:03.415Z,57.16
2018-11-04T11:16:33.927Z,59.77
2018-11-04T11:19:05.498Z,64.58
2018-11-04T11:21:36.025Z,61.88
2018-11-04T11:24:07.535Z,65.84
2018-11-04T11:26:38.147Z,62.17
2018-11-04T11:29:09.117Z,60.08
2018-11-04T11:31:40.258Z,56.08
2018-11-04T11:34:11.325Z,61.02
2018-11-04T11:36:42.125Z,58.73
2018-11-04T11:39:14.515Z,70.10
2018-11-04T11:41:44.712Z,62.90
2018-11-04T11:44:15.433Z,70.20
2018-11-04T11:46:46.210Z,68.97
2018-11-04T11:49:17.374Z,68.92
2018-11-04T11:51:47.975Z,60.85
2018-11-04T11:54:19.589Z,65.52
2018-11-04T11:56:50.036Z,69.35
2018-11-04T11:59:22.070Z,68.00
2018-11-04T12:01:52.039Z,72.75
2018-11-04T12:04:23.420Z,68.10
2018-11-04T12:06:53.994Z,67.10
2018-11-04T12:09:25.674Z,72.48
2018-11-04T12:11:56.753Z,71.22
2018-11-04T12:14:27.346Z,82.08
2018-11-04T12:16:57.986Z,75.40
2018-11-04T12:19:29.592Z,74.46
2018-11-04T12:22:00.100Z,79.53
2018-11-04T12:24:31.539Z,78.90
2018-11-04T12:27:02.073Z,88.00
2018-11-04T12:29:33.598Z,89.04
2018-11-04T12:32:04.528Z,93.25
2018-11-04T12:34:35.097Z,79.03
2018-11-04T12:37:06.001Z,81.00
2018-11-04T12:39:37.438Z,85.64
2018-11-04T12:42:08.078Z,81.78
2018-11-04T12:44:39.460Z,85.36
2018-11-04T12:47:10.145Z,87.27
2018-11-04T12:49:41.181Z,88.37
2018-11-04T12:52:12.083Z,92.02
2018-11-04T12:54:43.269Z,82.65
2018-11-04T12:57:13.899Z,84.67
2018-11-04T12:59:45.442Z,106.92
2018-11-04T13:02:15.973Z,104.78
2018-11-04T13:04:47.472Z,87.54
2018-11-04T13:07:17.944Z,97.97
2018-11-04T13:09:49.487Z,81.14
2018-11-04T13:12:19.977Z,91.28
2018-11-04T13:14:51.557Z,93.42
2018-11-04T13:17:22.032Z,85.77
2018-11-04T13:19:53.417Z,80.40
2018-11-04T13:22:24.017Z,94.47
2018-11-04T13:24:55.443Z,90.86
2018-11-04T13:27:26.016Z,82.62
2018-11-04T13:29:57.658Z,101.18
2018-11-04T13:32:28.250Z,97.62
2018-11-04T13:34:59.215Z,96.32
2018-11-04T13:37:30.053Z,86.47
2018-11-04T13:40:01.437Z,90.76
2018-11-04T13:42:32.132Z,78.12
2018-11-04T13:45:03.228Z,93.72
2018-11-04T13:47:34.060Z,89.80
2018-11-04T13:50:05.833Z,88.34
2018-11-04T13:52:36.291Z,79.97
2018-11-04T13:55:07.746Z,82.10
2018-11-04T13:57:38.552Z,83.12
2018-11-04T14:00:13.270Z,79.22
2018-11-04T14:02:44.316Z,71.07
2018-11-04T14:05:15.012Z,74.50
2018-11-04T14:07:44.785Z,77.25
2018-11-04T14:10:16.456Z,76.67
2018-11-04T14:12:46.773Z,69.90
2018-11-04T14:15:17.422Z,74.80
2018-11-04T14:17:47.825Z,69.50
2018-11-04T14:20:17.849Z,69.57
2018-11-04T14:22:48.453Z,71.50
2018-11-04T14:25:19.009Z,66.57
2018-11-04T14:27:50.640Z,64.62
2018-11-04T14:30:21.223Z,74.25
2018-11-04T14:32:52.098Z,79.42
2018-11-04T14:35:23.362Z,68.16
2018-11-04T14:37:54.440Z,60.65
2018-11-04T14:40:25.015Z,60.23
2018-11-04T14:42:56.763Z,59.26
2018-11-04T14:45:27.485Z,63.08
2018-11-04T14:47:58.861Z,57.17
2018-11-04T14:50:29.462Z,62.16
2018-11-04T14:53:00.373Z,56.02
2018-11-04T14:55:31.182Z,54.98
2018-11-04T14:58:02.284Z,52.70
2018-11-04T15:00:36.577Z,54.33
2018-11-04T15:03:08.677Z,54.90
2018-11-04T15:05:39.151Z,56.28
2018-11-04T15:08:10.119Z,58.08
2018-11-04T15:10:41.104Z,56.90
2018-11-04T15:13:11.202Z,58.90
2018-11-04T15:15:41.056Z,52.53
2018-11-04T15:18:11.151Z,59.40
2018-11-04T15:20:42.494Z,53.30
2018-11-04T15:23:12.602Z,53.50
2018-11-04T15:25:43.523Z,47.30
2018-11-04T15:28:14.145Z,52.10
2018-11-04T15:30:45.419Z,51.90
2018-11-04T15:33:16.181Z,54.98
2018-11-04T15:35:47.800Z,59.02
2018-11-04T15:38:18.470Z,52.50
2018-11-04T15:40:49.392Z,54.00
2018-11-04T15:43:21.101Z,54.20
2018-11-04T15:45:51.183Z,51.30
2018-11-04T15:48:22.074Z,56.33
2018-11-04T15:50:54.322Z,54.30
2018-11-04T15:53:24.487Z,61.07
2018-11-04T15:55:55.502Z,59.10
2018-11-04T15:58:26.126Z,78.37
2018-11-04T16:00:57.245Z,72.75
2018-11-04T16:03:28.850Z,62.58
2018-11-04T16:05:59.972Z,64.80
2018-11-04T16:08:30.959Z,65.58
2018-11-04T16:11:01.895Z,57.76
2018-11-04T16:13:32.425Z,65.56
2018-11-04T16:16:03.420Z,59.85
2018-11-04T16:18:34.103Z,57.33
2018-11-04T16:21:05.336Z,61.65
2018-11-04T16:23:36.262Z,63.60
2018-11-04T16:26:07.337Z,55.80
2018-11-04T16:28:38.069Z,58.45
2018-11-04T16:31:09.626Z,65.10
2018-11-04T16:33:40.572Z,63.23
2018-11-04T16:36:11.460Z,66.25
2018-11-04T16:38:42.194Z,65.20
2018-11-04T16:41:13.505Z,60.28
2018-11-04T16:43:44.465Z,61.85
2018-11-04T16:46:15.651Z,58.08
2018-11-04T16:48:46.401Z,73.40
2018-11-04T16:51:17.256Z,68.40
2018-11-04T16:53:48.190Z,65.57
2018-11-04T16:56:19.821Z,63.25
2018-11-04T16:58:50.492Z,66.67
2018-11-04T17:01:21.409Z,65.60
2018-11-04T17:03:52.300Z,70.57
2018-11-04T17:06:23.476Z,64.53
2018-11-04T17:08:56.140Z,66.30
2018-11-04T17:11:26.548Z,56.92
2018-11-04T17:13:56.865Z,62.73
2018-11-04T17:16:27.857Z,61.24
2018-11-04T17:18:58.731Z,64.53
2018-11-04T17:21:31.225Z,63.25
2018-11-04T17:24:02.410Z,57.30
2018-11-04T17:26:34.319Z,62.63
2018-11-04T17:29:09.416Z,65.43
2018-11-04T17:31:41.620Z,72.62
2018-11-04T17:34:13.723Z,63.45
2018-11-04T17:36:46.045Z,63.55
2018-11-04T17:39:17.614Z,63.13
2018-11-04T17:41:49.806Z,62.67
2018-11-04T17:44:21.780Z,57.38
2018-11-04T17:46:54.087Z,61.18
2018-11-04T17:49:26.714Z,55.10
2018-11-04T17:51:59.895Z,64.17
2018-11-04T17:54:31.714Z,67.03
2018-11-04T17:57:03.250Z,68.50
2018-11-04T17:59:35.287Z,67.40
2018-11-04T18:02:06.680Z,66.80
2018-11-04T18:04:39.774Z,64.43
2018-11-04T18:07:11.201Z,75.50
2018-11-04T18:09:42.500Z,72.30
2018-11-04T18:12:14.151Z,67.23
2018-11-04T18:14:46.257Z,65.63
2018-11-04T18:17:18.400Z,64.45
2018-11-04T18:19:49.716Z,69.70
2018-11-04T18:22:21.536Z,65.17
2018-11-04T18:24:53.247Z,65.47
2018-11-04T18:27:26.255Z,71.82
2018-11-04T18:29:59.323Z,113.25
2018-11-04T18:32:32.192Z,72.87
2018-11-04T18:35:05.244Z,68.52
2018-11-04T18:37:37.171Z,61.40
2018-11-04T18:40:12.407Z,68.72
2018-11-04T18:42:46.022Z,66.80
2018-11-04T18:45:18.601Z,62.67
2018-11-04T18:47:51.493Z,61.67
2018-11-04T18:50:24.613Z,64.70
2018-11-04T18:52:56.829Z,65.93
2018-11-04T18:55:29.353Z,68.83
2018-11-04T18:58:02.182Z,63.53
2018-11-04T19:00:35.613Z,59.83
2018-11-04T19:03:09.317Z,54.50
2018-11-04T19:05:43.149Z,62.70
2018-11-04T19:08:16.328Z,57.87
2018-11-04T19:10:48.893Z,55.23
2018-11-04T19:13:20.968Z,55.10
2018-11-04T19:15:54.514Z,56.97
2018-11-04T19:18:26.791Z,62.37
2018-11-04T19:20:58.880Z,59.60
2018-11-04T19:23:30.724Z,61.83
2018-11-04T19:26:02.508Z,57.33
2018-11-04T19:28:35.080Z,60.67
2018-11-04T19:31:06.179Z,63.00
2018-11-04T19:33:37.866Z,62.03
2018-11-04T19:36:09.612Z,57.97
2018-11-04T19:38:40.732Z,59.07
2018-11-04T19:41:12.578Z,60.83
2018-11-04T19:43:44.575Z,67.03
2018-11-04T19:46:16.052Z,68.77
2018-11-04T19:48:48.185Z,71.47
2018-11-04T19:51:19.677Z,67.10
2018-11-04T19:53:51.392Z,68.00
2018-11-04T19:56:23.524Z,66.83
2018-11-04T19:58:55.193Z,65.47
2018-11-04T20:01:27.490Z,68.15
2018-11-04T20:04:06.218Z,69.57
2018-11-04T20:06:38.035Z,66.75
2018-11-04T20:09:15.674Z,72.70
2018-11-04T20:11:48.312Z,81.40
2018-11-04T20:14:23.227Z,76.60
2018-11-04T20:16:56.195Z,78.33
2018-11-04T20:19:33.248Z,79.97
2018-11-04T20:22:05.881Z,86.55
2018-11-04T20:24:41.993Z,80.63
2018-11-04T20:27:13.521Z,80.80
2018-11-04T20:29:45.214Z,94.17
2018-11-04T20:32:21.553Z,89.93
2018-11-04T20:34:52.878Z,93.10
2018-11-04T20:37:24.039Z,93.73
2018-11-04T20:39:59.951Z,96.93
2018-11-04T20:42:31.655Z,88.47
2018-11-04T20:45:03.606Z,96.30
2018-11-04T20:47:39.419Z,95.43
2018-11-04T20:50:15.026Z,89.73
2018-11-04T20:52:45.056Z,89.83
2018-11-04T20:55:15.101Z,88.60
2018-11-04T20:57:48.099Z,90.53
2018-11-04T21:00:18.320Z,89.13
2018-11-04T21:02:48.282Z,91.43
2018-11-04T21:05:18.189Z,90.30
2018-11-04T21:07:48.083Z,90.20
2018-11-04T21:10:19.752Z,96.07
2018-11-04T21:12:49.559Z,92.50
2018-11-04T21:15:19.650Z,89.93
2018-11-04T21:17:49.661Z,98.63
2018-11-04T21:20:19.945Z,94.37
2018-11-04T21:22:49.968Z,99.80
2018-11-04T21:25:20.200Z,96.70
2018-11-04T21:27:50.646Z,91.53
2018-11-04T21:30:20.907Z,88.60
2018-11-04T21:32:51.042Z,88.43
2018-11-04T21:35:20.981Z,87.60
2018-11-04T21:37:50.972Z,90.67
2018-11-04T21:40:21.202Z,91.43
2018-11-04T21:42:51.266Z,94.50
2018-11-04T21:45:21.281Z,95.27
2018-11-04T21:47:51.200Z,88.50
2018-11-04T21:50:21.058Z,97.60
2018-11-04T21:52:50.896Z,88.13
2018-11-04T21:55:20.988Z,84.20
2018-11-04T21:57:50.899Z,83.60
2018-11-04T22:00:20.874Z,84.57
2018-11-04T22:02:50.740Z,86.17
2018-11-04T22:05:20.771Z,83.87
2018-11-04T22:07:54.081Z,84.20
2018-11-04T22:10:24.005Z,83.67
2018-11-04T22:12:53.752Z,82.73
2018-11-04T22:15:23.597Z,83.90
2018-11-04T22:17:53.577Z,85.10
2018-11-04T22:20:23.532Z,86.70
2018-11-04T22:22:53.677Z,81.80
2018-11-04T22:25:23.566Z,87.13
2018-11-04T22:27:53.625Z,80.03
2018-11-04T22:30:23.746Z,79.43
2018-11-04T22:32:55.568Z,85.90
2018-11-04T22:35:25.817Z,80.83
2018-11-04T22:37:55.573Z,74.40
2018-11-04T22:40:25.601Z,76.33
2018-11-04T22:42:55.560Z,79.77
2018-11-04T22:45:25.502Z,81.03
2018-11-04T22:47:55.890Z,71.07
2018-11-04T22:50:25.678Z,75.80
2018-11-04T22:52:55.620Z,80.63
2018-11-04T22:55:26.064Z,75.40
2018-11-04T22:57:59.779Z,78.53
2018-11-04T23:00:34.834Z,77.77
2018-11-04T23:03:04.614Z,78.57
2018-11-04T23:05:34.681Z,80.07
2018-11-04T23:08:05.108Z,78.47
2018-11-04T23:10:34.997Z,82.23
2018-11-04T23:13:05.092Z,75.50
2018-11-04T23:15:34.893Z,66.97
2018-11-04T23:18:04.724Z,75.43
2018-11-04T23:20:34.617Z,76.67
2018-11-04T23:23:04.708Z,77.53
2018-11-04T23:25:34.787Z,73.77
2018-11-04T23:28:04.539Z,74.87
2018-11-04T23:30:34.706Z,77.47
2018-11-04T23:33:04.732Z,74.13
2018-11-04T23:35:34.580Z,80.03
2018-11-04T23:38:04.672Z,73.67
2018-11-04T23:40:34.965Z,73.90
2018-11-04T23:43:04.918Z,75.47
2018-11-04T23:45:34.740Z,78.10
2018-11-04T23:48:04.561Z,78.50
2018-11-04T23:50:35.433Z,76.93
2018-11-04T23:53:05.637Z,77.47
2018-11-04T23:55:35.847Z,83.03
2018-11-04T23:58:05.778Z,76.40
